Terminal Aerodrome Forecast
Issued by NWS

Home | Current Version | Previous Version | Text Only | Print | Product List | Glossary Off
Versions: 1 2 3 4 5 6 7 8 9 10 11 12 13 14 15 16 17 18 19

108
FTUS43 KABR 081723
TAFMBG
TAF
KMBG 081723Z 0818/0918 33022G29KT P6SM SKC
     FM090000 34012KT P6SM OVC100
     FM091200 VRB04KT P6SM OVC050=

USA.gov is the U.S. government's official web portal to all federal, state and local government web resources and services.